Skye Living the Dream

 

 


Latest Web Cam Image


Weather report/warning/Metars


2012/05/08 12:15

TAF EGPH 081103Z 0812/0912 25008KT 9999 SCT030 

      TEMPO 0812/0820 4000 +SHRA

Edinburgh Airport, United Kingdom (EGPH) 55-57N 003-21W 0M

May 08, 2012 - 07:50 AM EDT / 2012.05.08 1150 UTC

Wind: from the WNW (290 degrees) at 9 MPH (8 KT) (direction variable):0

Visibility: greater than 7 mile(s):0

Sky conditions: mostly cloudy

Weather: Cumulonimbus clouds observed

Temperature: 55 F (13 C)

Dew Point: 41 F (5 C)

Relative Humidity: 58%

Pressure (altimeter): 29.56 in. Hg (1001 hPa)

ob: EGPH 081150Z 29008KT 250V350 9999 FEW030CB BKN043 13/05 Q1001

cycle: 12



Use the facility on your browser to retrieve the latest data.

Click here for a daily update of the averages/extremes to date for the month

Link to Fishcross Weather Live WDL







































Created by "Weather Display" software version 10.37R Build 23 at this start time/date 07:17 08/05/12